createdAt,value
2018-02-16T00:01:16.389Z,19.50
2018-02-16T00:03:45.477Z,21.57
2018-02-16T00:06:13.789Z,21.10
2018-02-16T00:08:42.069Z,19.97
2018-02-16T00:11:10.358Z,19.83
2018-02-16T00:13:38.649Z,22.23
2018-02-16T00:16:06.955Z,16.17
2018-02-16T00:18:35.257Z,18.77
2018-02-16T00:21:03.551Z,13.80
2018-02-16T00:23:31.846Z,21.97
2018-02-16T00:26:00.121Z,17.87
2018-02-16T00:28:28.435Z,24.90
2018-02-16T00:30:56.758Z,28.50
2018-02-16T00:33:25.050Z,15.53
2018-02-16T00:35:53.345Z,22.57
2018-02-16T00:38:21.636Z,21.40
2018-02-16T00:40:50.706Z,15.60
2018-02-16T00:43:19.010Z,15.97
2018-02-16T00:45:47.342Z,14.03
2018-02-16T00:48:15.618Z,20.77
2018-02-16T00:50:43.913Z,16.13
2018-02-16T00:53:12.209Z,18.77
2018-02-16T00:55:40.503Z,20.37
2018-02-16T00:58:08.813Z,25.30
2018-02-16T01:00:37.887Z,16.57
2018-02-16T01:03:06.172Z,17.57
2018-02-16T01:05:34.482Z,23.73
2018-02-16T01:08:02.754Z,21.57
2018-02-16T01:10:31.068Z,17.00
2018-02-16T01:12:59.387Z,19.47
2018-02-16T01:15:27.680Z,18.93
2018-02-16T01:17:55.991Z,23.83
2018-02-16T01:20:24.296Z,21.63
2018-02-16T01:22:52.607Z,22.57
2018-02-16T01:25:20.918Z,17.63
2018-02-16T01:27:49.202Z,16.97
2018-02-16T01:30:17.501Z,22.33
2018-02-16T01:32:45.815Z,21.40
2018-02-16T01:35:14.131Z,15.43
2018-02-16T01:37:42.437Z,17.77
2018-02-16T01:40:10.751Z,22.40
2018-02-16T01:42:39.056Z,12.47
2018-02-16T01:45:07.345Z,16.60
2018-02-16T01:47:35.622Z,20.43
2018-02-16T01:50:06.129Z,16.23
2018-02-16T01:52:34.416Z,17.23
2018-02-16T01:55:02.714Z,20.93
2018-02-16T01:57:31.010Z,20.83
2018-02-16T01:59:59.316Z,17.23
2018-02-16T02:02:27.584Z,20.57
2018-02-16T02:04:55.898Z,15.67
2018-02-16T02:07:24.190Z,17.40
2018-02-16T02:09:52.511Z,15.77
2018-02-16T02:12:20.488Z,18.90
2018-02-16T02:14:48.789Z,15.37
2018-02-16T02:17:17.092Z,17.43
2018-02-16T02:19:45.378Z,17.00
2018-02-16T02:22:13.689Z,15.70
2018-02-16T02:24:41.963Z,11.73
2018-02-16T02:27:10.275Z,17.47
2018-02-16T02:29:38.569Z,15.63
2018-02-16T02:32:06.854Z,14.90
2018-02-16T02:34:35.156Z,19.40
2018-02-16T02:37:03.455Z,12.00
2018-02-16T02:39:31.741Z,12.50
2018-02-16T02:42:00.047Z,16.00
2018-02-16T02:44:28.346Z,14.97
2018-02-16T02:46:56.664Z,12.10
2018-02-16T02:49:25.752Z,9.87
2018-02-16T02:51:54.825Z,8.53
2018-02-16T02:54:23.131Z,10.80
2018-02-16T02:56:51.448Z,14.47
2018-02-16T02:59:19.744Z,12.27
2018-02-16T03:01:48.074Z,15.60
2018-02-16T03:04:17.190Z,13.43
2018-02-16T03:06:45.503Z,16.80
2018-02-16T03:09:13.811Z,11.53
2018-02-16T03:11:42.109Z,16.23
2018-02-16T03:14:11.201Z,11.30
2018-02-16T03:16:39.500Z,12.43
2018-02-16T03:19:07.826Z,18.27
2018-02-16T03:21:36.120Z,11.83
2018-02-16T03:24:04.440Z,11.20
2018-02-16T03:26:32.737Z,14.23
2018-02-16T03:29:01.047Z,13.63
2018-02-16T03:31:29.358Z,15.30
2018-02-16T03:33:57.638Z,16.17
2018-02-16T03:36:25.944Z,14.83
2018-02-16T03:38:55.030Z,14.37
2018-02-16T03:41:23.329Z,22.17
2018-02-16T03:43:51.653Z,13.97
2018-02-16T03:46:19.945Z,16.93
2018-02-16T03:48:48.246Z,23.03
2018-02-16T03:51:16.548Z,8.20
2018-02-16T03:53:44.856Z,16.10
2018-02-16T03:56:13.148Z,12.87
2018-02-16T03:58:41.432Z,15.53
2018-02-16T04:01:09.737Z,16.47
2018-02-16T04:03:38.021Z,12.37
2018-02-16T04:06:06.350Z,13.57
2018-02-16T04:08:34.900Z,11.13
2018-02-16T04:11:03.215Z,15.33
2018-02-16T04:13:31.520Z,17.50
2018-02-16T04:15:59.818Z,14.57
2018-02-16T04:18:28.123Z,17.80
2018-02-16T04:20:56.418Z,16.23
2018-02-16T04:23:24.755Z,15.80
2018-02-16T04:25:53.064Z,13.03
2018-02-16T04:28:21.352Z,12.70
2018-02-16T04:30:49.642Z,12.10
2018-02-16T04:33:17.987Z,12.80
2018-02-16T04:35:46.265Z,15.27
2018-02-16T04:38:14.603Z,10.90
2018-02-16T04:40:42.917Z,16.23
2018-02-16T04:43:11.206Z,17.90
2018-02-16T04:45:39.493Z,10.90
2018-02-16T04:48:07.780Z,16.57
2018-02-16T04:50:36.109Z,20.50
2018-02-16T04:53:04.168Z,14.97
2018-02-16T04:55:32.451Z,21.20
2018-02-16T04:58:00.770Z,11.87
2018-02-16T05:00:29.825Z,21.00
2018-02-16T05:02:58.125Z,16.20
2018-02-16T05:05:26.400Z,18.27
2018-02-16T05:07:54.706Z,14.97
2018-02-16T05:10:22.998Z,14.57
2018-02-16T05:12:52.100Z,16.40
2018-02-16T05:15:20.385Z,14.03
2018-02-16T05:17:48.699Z,16.23
2018-02-16T05:20:16.984Z,21.10
2018-02-16T05:22:45.277Z,12.13
2018-02-16T05:25:13.578Z,16.57
2018-02-16T05:27:41.872Z,13.60
2018-02-16T05:30:10.943Z,13.07
2018-02-16T05:32:39.246Z,17.47
2018-02-16T05:35:07.513Z,13.33
2018-02-16T05:37:35.819Z,17.20
2018-02-16T05:40:03.999Z,17.17
2018-02-16T05:42:33.085Z,14.47
2018-02-16T05:45:01.372Z,12.50
2018-02-16T05:47:29.713Z,11.60
2018-02-16T05:49:58.163Z,17.23
2018-02-16T05:52:26.441Z,14.13
2018-02-16T05:54:54.771Z,13.43
2018-02-16T05:57:23.069Z,15.40
2018-02-16T05:59:51.356Z,11.73
2018-02-16T06:02:19.684Z,18.97
2018-02-16T06:04:47.984Z,17.90
2018-02-16T06:07:16.253Z,14.53
2018-02-16T06:09:44.530Z,16.73
2018-02-16T06:12:12.829Z,16.90
2018-02-16T06:14:41.124Z,11.83
2018-02-16T06:17:09.437Z,11.90
2018-02-16T06:19:37.710Z,19.10
2018-02-16T06:22:05.991Z,9.07
2018-02-16T06:24:34.265Z,15.17
2018-02-16T06:27:02.575Z,15.57
2018-02-16T06:29:30.878Z,13.10
2018-02-16T06:31:59.229Z,14.00
2018-02-16T06:34:27.538Z,12.37
2018-02-16T06:36:55.872Z,14.00
2018-02-16T06:39:24.160Z,10.30
2018-02-16T06:41:52.456Z,16.13
2018-02-16T06:44:21.513Z,16.37
2018-02-16T06:46:49.833Z,15.53
2018-02-16T06:49:18.140Z,15.13
2018-02-16T06:51:46.420Z,13.33
2018-02-16T06:54:14.726Z,17.27
2018-02-16T06:56:43.038Z,10.77
2018-02-16T06:59:12.272Z,9.10
2018-02-16T07:01:41.324Z,10.83
2018-02-16T07:04:09.642Z,13.00
2018-02-16T07:06:37.971Z,14.07
2018-02-16T07:09:05.943Z,13.17
2018-02-16T07:11:34.267Z,13.47
2018-02-16T07:14:02.565Z,8.93
2018-02-16T07:16:30.856Z,15.10
2018-02-16T07:18:59.959Z,10.73
2018-02-16T07:21:28.276Z,13.23
2018-02-16T07:23:56.411Z,15.03
2018-02-16T07:26:25.477Z,18.20
2018-02-16T07:28:53.809Z,16.57
2018-02-16T07:31:22.906Z,17.80
2018-02-16T07:33:51.190Z,16.67
2018-02-16T07:36:19.499Z,16.63
2018-02-16T07:38:47.800Z,12.60
2018-02-16T07:41:16.090Z,14.87
2018-02-16T07:43:47.520Z,12.43
2018-02-16T07:46:15.803Z,14.53
2018-02-16T07:48:44.101Z,11.23
2018-02-16T07:51:12.434Z,13.40
2018-02-16T07:53:40.866Z,10.47
2018-02-16T07:56:09.193Z,14.37
2018-02-16T07:58:38.261Z,16.67
2018-02-16T08:01:05.972Z,11.63
2018-02-16T08:03:34.262Z,12.30
2018-02-16T08:06:02.574Z,11.23
2018-02-16T08:08:30.881Z,11.17
2018-02-16T08:10:59.219Z,11.40
2018-02-16T08:13:27.507Z,20.97
2018-02-16T08:15:55.798Z,14.00
2018-02-16T08:18:24.107Z,15.90
2018-02-16T08:20:52.402Z,14.73
2018-02-16T08:23:20.686Z,16.17
2018-02-16T08:25:48.990Z,14.60
2018-02-16T08:28:17.400Z,11.03
2018-02-16T08:30:45.513Z,13.47
2018-02-16T08:33:13.877Z,14.13
2018-02-16T08:35:42.141Z,13.97
2018-02-16T08:38:10.437Z,11.47
2018-02-16T08:40:38.875Z,20.30
2018-02-16T08:43:07.175Z,13.33
2018-02-16T08:45:35.496Z,8.70
2018-02-16T08:48:03.776Z,12.63
2018-02-16T08:50:32.087Z,9.80
2018-02-16T08:53:00.375Z,12.47
2018-02-16T08:55:28.656Z,11.03
2018-02-16T08:57:56.956Z,15.13
2018-02-16T09:00:25.224Z,6.80
2018-02-16T09:02:54.447Z,11.20
2018-02-16T09:05:22.711Z,12.80
2018-02-16T09:07:51.941Z,12.47
2018-02-16T09:10:20.240Z,10.00
2018-02-16T09:12:48.533Z,10.07
2018-02-16T09:15:16.808Z,10.60
2018-02-16T09:17:45.134Z,14.33
2018-02-16T09:20:13.433Z,9.63
2018-02-16T09:22:41.741Z,10.07
2018-02-16T09:25:09.963Z,10.77
2018-02-16T09:27:38.263Z,10.70
2018-02-16T09:30:06.539Z,12.33
2018-02-16T09:32:34.847Z,9.53
2018-02-16T09:35:03.154Z,11.23
2018-02-16T09:37:31.885Z,10.70
2018-02-16T09:40:12.668Z,11.40
2018-02-16T09:42:41.525Z,13.03
2018-02-16T09:45:09.847Z,9.53
2018-02-16T09:47:38.891Z,10.40
2018-02-16T09:50:07.182Z,10.00
2018-02-16T09:52:35.488Z,8.67
2018-02-16T09:55:03.788Z,8.43
2018-02-16T09:57:32.074Z,12.03
2018-02-16T10:00:00.353Z,11.40
2018-02-16T10:02:28.673Z,12.90
2018-02-16T10:04:56.971Z,9.47
2018-02-16T10:07:25.269Z,9.17
2018-02-16T10:09:53.594Z,10.97
2018-02-16T10:12:21.881Z,12.70
2018-02-16T10:14:50.155Z,10.33
2018-02-16T10:17:18.446Z,9.30
2018-02-16T10:19:46.761Z,7.73
2018-02-16T10:22:15.105Z,10.80
2018-02-16T10:24:43.369Z,10.50
2018-02-16T10:27:12.445Z,8.90
2018-02-16T10:29:41.484Z,12.67
2018-02-16T10:32:09.781Z,9.20
2018-02-16T10:34:38.058Z,9.60
2018-02-16T10:37:06.328Z,12.47
2018-02-16T10:39:34.657Z,8.43
2018-02-16T10:42:02.923Z,10.70
2018-02-16T10:44:31.210Z,10.23
2018-02-16T10:46:59.303Z,9.07
2018-02-16T10:49:27.600Z,5.37
2018-02-16T10:51:56.647Z,11.70
2018-02-16T10:54:24.957Z,11.83
2018-02-16T10:56:53.238Z,7.63
2018-02-16T10:59:21.572Z,10.50
2018-02-16T11:01:55.259Z,14.00
2018-02-16T11:04:29.086Z,10.13
2018-02-16T11:07:02.859Z,12.93
2018-02-16T11:09:31.924Z,9.40
2018-02-16T11:12:00.048Z,11.23
2018-02-16T11:14:29.100Z,9.63
2018-02-16T11:16:57.395Z,12.13
2018-02-16T11:19:25.656Z,13.40
2018-02-16T11:21:53.951Z,10.57
2018-02-16T11:24:22.268Z,9.77
2018-02-16T11:26:51.319Z,6.80
2018-02-16T11:29:19.608Z,8.70
2018-02-16T11:31:47.886Z,8.67
2018-02-16T11:34:16.204Z,10.03
2018-02-16T11:36:44.480Z,10.67
2018-02-16T11:39:12.779Z,9.13
2018-02-16T11:41:41.084Z,11.67
2018-02-16T11:44:09.366Z,13.67
2018-02-16T11:46:37.634Z,13.53
2018-02-16T11:49:05.896Z,8.77
2018-02-16T11:51:34.165Z,9.10
2018-02-16T11:54:02.458Z,9.97
2018-02-16T11:56:30.747Z,14.20
2018-02-16T11:58:59.053Z,8.60
2018-02-16T12:01:27.355Z,9.53
2018-02-16T12:03:55.633Z,13.43
2018-02-16T12:06:23.909Z,13.80
2018-02-16T12:08:52.197Z,7.17
2018-02-16T12:11:20.505Z,12.33
2018-02-16T12:13:48.811Z,11.83
2018-02-16T12:16:17.858Z,11.87
2018-02-16T12:18:46.127Z,11.20
2018-02-16T12:21:14.412Z,8.90
2018-02-16T12:23:42.707Z,8.87
2018-02-16T12:26:10.969Z,8.83
2018-02-16T12:28:39.269Z,11.97
2018-02-16T12:31:07.557Z,11.90
2018-02-16T12:33:35.837Z,9.50
2018-02-16T12:36:04.869Z,7.47
2018-02-16T12:38:33.931Z,8.80
2018-02-16T12:41:02.192Z,9.20
2018-02-16T12:43:30.476Z,8.40
2018-02-16T12:45:58.776Z,8.93
2018-02-16T12:48:27.054Z,10.17
2018-02-16T12:50:55.327Z,7.90
2018-02-16T12:53:23.613Z,11.90
2018-02-16T12:55:51.884Z,5.57
2018-02-16T12:58:20.174Z,8.53
2018-02-16T13:00:48.446Z,8.87
2018-02-16T13:03:16.707Z,8.70
2018-02-16T13:05:44.985Z,9.00
2018-02-16T13:08:13.270Z,10.93
2018-02-16T13:10:41.577Z,8.50
2018-02-16T13:13:09.864Z,10.00
2018-02-16T13:15:38.916Z,10.83
2018-02-16T13:18:07.948Z,8.53
2018-02-16T13:20:36.238Z,9.70
2018-02-16T13:23:04.507Z,10.30
2018-02-16T13:25:34.578Z,10.63
2018-02-16T13:28:02.869Z,10.20
2018-02-16T13:30:31.139Z,12.10
2018-02-16T13:32:59.406Z,8.27
2018-02-16T13:35:27.726Z,10.47
2018-02-16T13:37:56.013Z,11.47
2018-02-16T13:40:24.282Z,11.80
2018-02-16T13:42:52.542Z,9.10
2018-02-16T13:45:20.830Z,7.73
2018-02-16T13:47:49.130Z,9.43
2018-02-16T13:50:17.413Z,8.47
2018-02-16T13:52:45.703Z,9.47
2018-02-16T13:55:13.988Z,7.97
2018-02-16T13:57:42.238Z,6.83
2018-02-16T14:00:11.299Z,12.93
2018-02-16T14:02:39.573Z,8.03
2018-02-16T14:05:07.670Z,8.60
2018-02-16T14:07:35.816Z,12.30
2018-02-16T14:10:03.932Z,9.60
2018-02-16T14:12:32.241Z,9.40
2018-02-16T14:15:01.287Z,6.77
2018-02-16T14:17:29.570Z,10.20
2018-02-16T14:19:57.834Z,9.20
2018-02-16T14:22:26.108Z,10.00
2018-02-16T14:24:54.392Z,10.43
2018-02-16T14:27:22.653Z,9.00
2018-02-16T14:29:50.937Z,7.07
2018-02-16T14:32:19.203Z,8.70
2018-02-16T14:34:47.474Z,8.00
2018-02-16T14:37:15.728Z,9.77
2018-02-16T14:39:44.260Z,13.47
2018-02-16T14:42:12.529Z,9.77
2018-02-16T14:44:40.814Z,10.60
2018-02-16T14:47:09.074Z,10.50
2018-02-16T14:49:37.379Z,10.07
2018-02-16T14:52:05.637Z,13.50
2018-02-16T14:54:33.923Z,11.83
2018-02-16T14:57:02.250Z,13.63
2018-02-16T14:59:30.544Z,6.60
2018-02-16T15:01:58.849Z,7.93
2018-02-16T15:04:27.168Z,13.57
2018-02-16T15:06:55.597Z,10.63
2018-02-16T15:09:23.897Z,10.93
2018-02-16T15:11:52.181Z,9.60
2018-02-16T15:14:20.457Z,9.73
2018-02-16T15:16:48.745Z,11.23
2018-02-16T15:19:17.044Z,10.53
2018-02-16T15:21:45.343Z,11.90
2018-02-16T15:24:13.622Z,9.63
2018-02-16T15:26:41.897Z,9.77
2018-02-16T15:29:10.186Z,12.57
2018-02-16T15:31:38.460Z,9.13
2018-02-16T15:34:06.723Z,16.10
2018-02-16T15:36:35.002Z,14.53
2018-02-16T15:39:02.861Z,8.70
2018-02-16T15:41:31.138Z,12.73
2018-02-16T15:43:59.413Z,9.60
2018-02-16T15:46:27.746Z,13.07
2018-02-16T15:48:56.799Z,9.87
2018-02-16T15:51:25.106Z,8.67
2018-02-16T15:53:53.384Z,10.17
2018-02-16T15:56:21.674Z,9.83
2018-02-16T15:58:49.950Z,9.33
2018-02-16T16:01:18.229Z,6.80
2018-02-16T16:03:46.512Z,8.97
2018-02-16T16:06:14.816Z,9.23
2018-02-16T16:08:43.090Z,11.43
2018-02-16T16:11:11.374Z,10.50
2018-02-16T16:13:39.880Z,8.00
2018-02-16T16:16:08.153Z,14.67
2018-02-16T16:18:36.411Z,11.53
2018-02-16T16:21:04.697Z,11.70
2018-02-16T16:23:32.992Z,10.47
2018-02-16T16:26:01.282Z,12.90
2018-02-16T16:28:30.114Z,14.33
2018-02-16T16:30:58.222Z,10.23
2018-02-16T16:33:26.525Z,10.20
2018-02-16T16:35:54.808Z,10.57
2018-02-16T16:38:22.893Z,11.77
2018-02-16T16:40:51.186Z,13.77
2018-02-16T16:43:19.437Z,9.57
2018-02-16T16:45:48.501Z,15.47
2018-02-16T16:48:16.767Z,13.60
2018-02-16T16:50:45.060Z,10.70
2018-02-16T16:53:13.350Z,14.20
2018-02-16T16:55:41.639Z,13.10
2018-02-16T16:58:10.007Z,12.07
2018-02-16T17:00:38.297Z,12.90
2018-02-16T17:03:06.570Z,10.83
2018-02-16T17:05:34.903Z,8.80
2018-02-16T17:08:03.205Z,17.53
2018-02-16T17:10:31.483Z,12.83
2018-02-16T17:12:59.951Z,11.50
2018-02-16T17:15:28.233Z,13.27
2018-02-16T17:17:56.536Z,15.90
2018-02-16T17:20:24.950Z,13.83
2018-02-16T17:22:53.226Z,12.37
2018-02-16T17:25:21.536Z,12.33
2018-02-16T17:27:49.799Z,18.10
2018-02-16T17:30:18.090Z,17.70
2018-02-16T17:32:46.390Z,18.37
2018-02-16T17:35:14.666Z,19.23
2018-02-16T17:37:42.962Z,15.73
2018-02-16T17:40:11.254Z,18.00
2018-02-16T17:42:39.529Z,12.03
2018-02-16T17:45:07.805Z,19.73
2018-02-16T17:47:36.131Z,14.90
2018-02-16T17:50:04.412Z,17.20
2018-02-16T17:52:32.501Z,19.63
2018-02-16T17:55:00.774Z,14.57
2018-02-16T17:57:29.050Z,12.73
2018-02-16T17:59:57.400Z,15.00
2018-02-16T18:02:26.256Z,15.57
2018-02-16T18:04:54.544Z,13.57
2018-02-16T18:07:23.759Z,16.60
2018-02-16T18:09:52.817Z,16.57
2018-02-16T18:12:21.936Z,12.80
2018-02-16T18:14:50.208Z,15.23
2018-02-16T18:17:18.472Z,16.17
2018-02-16T18:19:46.748Z,15.20
2018-02-16T18:22:15.020Z,16.17
2018-02-16T18:24:43.965Z,16.97
2018-02-16T18:27:12.239Z,16.50
2018-02-16T18:29:41.352Z,21.30
2018-02-16T18:32:10.409Z,11.57
2018-02-16T18:34:38.673Z,13.00
2018-02-16T18:37:06.925Z,15.73
2018-02-16T18:39:35.203Z,15.50
2018-02-16T18:42:03.487Z,18.13
2018-02-16T18:44:31.745Z,16.60
2018-02-16T18:47:00.037Z,17.27
2018-02-16T18:49:28.294Z,17.27
2018-02-16T18:51:56.588Z,13.97
2018-02-16T18:54:24.853Z,19.27
2018-02-16T18:56:53.130Z,18.03
2018-02-16T18:59:21.406Z,15.50
2018-02-16T19:01:49.697Z,14.50
2018-02-16T19:04:17.988Z,18.70
2018-02-16T19:06:50.201Z,19.33
2018-02-16T19:09:18.552Z,21.27
2018-02-16T19:11:46.812Z,15.17
2018-02-16T19:14:15.085Z,14.37
2018-02-16T19:16:43.170Z,16.87
2018-02-16T19:19:11.446Z,16.53
2018-02-16T19:21:39.709Z,15.83
2018-02-16T19:24:07.988Z,15.03
2018-02-16T19:26:36.258Z,11.93
2018-02-16T19:29:04.552Z,13.93
2018-02-16T19:31:32.852Z,17.33
2018-02-16T19:34:01.132Z,11.60
2018-02-16T19:36:29.423Z,15.03
2018-02-16T19:38:57.875Z,15.77
2018-02-16T19:41:26.184Z,8.90
2018-02-16T19:43:54.470Z,11.10
2018-02-16T19:46:22.797Z,17.40
2018-02-16T19:48:52.013Z,11.83
2018-02-16T19:51:20.320Z,17.90
2018-02-16T19:53:48.584Z,14.53
2018-02-16T19:56:16.900Z,18.47
2018-02-16T19:58:46.670Z,17.23
2018-02-16T20:01:14.957Z,16.73
2018-02-16T20:03:43.221Z,18.57
2018-02-16T20:06:11.501Z,15.10
2018-02-16T20:08:39.582Z,18.83
2018-02-16T20:11:07.875Z,16.33
2018-02-16T20:13:36.166Z,19.30
2018-02-16T20:16:04.429Z,20.10
2018-02-16T20:18:32.744Z,16.30
2018-02-16T20:21:00.927Z,24.30
2018-02-16T20:23:29.213Z,17.50
2018-02-16T20:25:59.043Z,18.43
2018-02-16T20:28:27.375Z,22.00
2018-02-16T20:30:55.639Z,17.07
2018-02-16T20:33:23.924Z,23.50
2018-02-16T20:35:52.218Z,19.70
2018-02-16T20:38:20.493Z,19.00
2018-02-16T20:40:48.753Z,16.50
2018-02-16T20:43:17.019Z,20.87
2018-02-16T20:45:45.281Z,23.87
2018-02-16T20:48:15.062Z,18.93
2018-02-16T20:50:43.342Z,22.60
2018-02-16T20:53:11.632Z,20.37
2018-02-16T20:55:39.914Z,19.10
2018-02-16T20:58:08.385Z,34.97
2018-02-16T21:00:36.751Z,31.60
2018-02-16T21:03:04.852Z,24.97
2018-02-16T21:05:33.073Z,23.83
2018-02-16T21:08:01.344Z,16.13
2018-02-16T21:10:31.543Z,27.70
2018-02-16T21:12:59.804Z,28.23
2018-02-16T21:15:28.098Z,32.13
2018-02-16T21:17:56.388Z,30.63
2018-02-16T21:20:24.680Z,25.07
2018-02-16T21:22:52.964Z,22.87
2018-02-16T21:25:21.277Z,22.33
2018-02-16T21:27:50.330Z,17.23
2018-02-16T21:30:18.586Z,20.53
2018-02-16T21:32:46.877Z,17.67
2018-02-16T21:35:14.956Z,16.23
2018-02-16T21:37:43.264Z,19.23
2018-02-16T21:40:11.560Z,19.57
2018-02-16T21:42:39.853Z,21.40
2018-02-16T21:45:08.134Z,19.80
2018-02-16T21:47:36.412Z,16.77
2018-02-16T21:50:04.352Z,16.00
2018-02-16T21:52:32.628Z,16.83
2018-02-16T21:55:00.958Z,20.40
2018-02-16T21:57:29.373Z,26.40
2018-02-16T21:59:58.491Z,17.97
2018-02-16T22:02:27.168Z,19.47
2018-02-16T22:04:55.486Z,17.50
2018-02-16T22:07:23.750Z,20.20
2018-02-16T22:09:52.036Z,23.20
2018-02-16T22:12:20.307Z,21.43
2018-02-16T22:14:48.602Z,25.80
2018-02-16T22:17:16.885Z,27.53
2018-02-16T22:19:45.187Z,24.60
2018-02-16T22:22:13.481Z,27.43
2018-02-16T22:24:41.742Z,22.27
2018-02-16T22:27:11.688Z,24.17
2018-02-16T22:29:40.727Z,25.27
2018-02-16T22:32:08.996Z,29.57
2018-02-16T22:34:37.268Z,23.20
2018-02-16T22:37:05.572Z,26.63
2018-02-16T22:39:33.849Z,19.27
2018-02-16T22:42:02.143Z,22.57
2018-02-16T22:44:30.444Z,27.57
2018-02-16T22:46:58.742Z,24.47
2018-02-16T22:49:27.004Z,18.80
2018-02-16T22:51:55.267Z,24.37
2018-02-16T22:54:23.381Z,32.57
2018-02-16T22:56:51.676Z,24.57
2018-02-16T22:59:20.706Z,26.30
2018-02-16T23:01:48.980Z,19.20
2018-02-16T23:04:17.234Z,22.93
2018-02-16T23:06:45.510Z,23.30
2018-02-16T23:09:13.790Z,22.33
2018-02-16T23:11:42.058Z,25.27
2018-02-16T23:14:10.343Z,26.90
2018-02-16T23:16:38.605Z,28.77
2018-02-16T23:19:06.901Z,17.57
2018-02-16T23:21:35.158Z,23.23
2018-02-16T23:24:03.263Z,17.87
2018-02-16T23:26:31.538Z,22.80
2018-02-16T23:29:01.008Z,21.17
2018-02-16T23:31:29.274Z,17.97
2018-02-16T23:33:57.574Z,20.63
2018-02-16T23:36:25.850Z,23.43
2018-02-16T23:38:54.126Z,25.27
2018-02-16T23:41:22.402Z,21.57
2018-02-16T23:43:50.646Z,22.83
2018-02-16T23:46:18.918Z,25.87
2018-02-16T23:48:47.191Z,23.43
2018-02-16T23:51:15.492Z,19.10
2018-02-16T23:53:43.742Z,19.67
2018-02-16T23:56:12.787Z,19.97
2018-02-16T23:58:41.042Z,24.70
